createdAt,value
2023-02-23T00:00:55.247Z,55.52
2023-02-23T00:01:55.269Z,47.92
2023-02-23T00:02:55.324Z,49.83
2023-02-23T00:03:55.209Z,51.24
2023-02-23T00:04:55.208Z,56.22
2023-02-23T00:05:55.192Z,46.71
2023-02-23T00:06:55.198Z,47.66
2023-02-23T00:07:55.192Z,50.03
2023-02-23T00:08:55.166Z,45.81
2023-02-23T00:09:55.160Z,52.57
2023-02-23T00:10:55.151Z,46.83
2023-02-23T00:11:55.143Z,43.54
2023-02-23T00:12:55.159Z,56.69
2023-02-23T00:13:55.133Z,46.55
2023-02-23T00:14:55.128Z,49.96
2023-02-23T00:15:55.117Z,42.82
2023-02-23T00:16:55.112Z,45.80
2023-02-23T00:17:55.124Z,45.52
2023-02-23T00:18:55.111Z,50.79
2023-02-23T00:19:55.078Z,42.88
2023-02-23T00:20:55.072Z,53.38
2023-02-23T00:21:55.069Z,46.07
2023-02-23T00:22:55.082Z,48.26
2023-02-23T00:23:55.055Z,56.50
2023-02-23T00:24:55.042Z,46.90
2023-02-23T00:25:55.035Z,47.77
2023-02-23T00:26:55.033Z,45.82
2023-02-23T00:27:55.055Z,44.63
2023-02-23T00:28:55.015Z,47.78
2023-02-23T00:29:55.007Z,61.09
2023-02-23T00:30:55.011Z,44.23
2023-02-23T00:31:55.098Z,43.34
2023-02-23T00:32:55.009Z,61.74
2023-02-23T00:33:54.985Z,52.53
2023-02-23T00:34:54.973Z,51.00
2023-02-23T00:35:54.963Z,52.48
2023-02-23T00:36:54.969Z,42.31
2023-02-23T00:37:54.974Z,46.14
2023-02-23T00:38:54.939Z,46.45
2023-02-23T00:39:54.937Z,47.88
2023-02-23T00:40:54.933Z,55.75
2023-02-23T00:41:54.940Z,52.48
2023-02-23T00:42:54.938Z,51.86
2023-02-23T00:43:54.923Z,46.29
2023-02-23T00:44:54.911Z,52.37
2023-02-23T00:45:54.977Z,50.47
2023-02-23T00:46:54.881Z,45.41
2023-02-23T00:47:54.909Z,43.85
2023-02-23T00:48:54.863Z,42.67
2023-02-23T00:49:55.860Z,45.35
2023-02-23T00:50:54.849Z,45.21
2023-02-23T00:51:54.846Z,44.85
2023-02-23T00:52:54.873Z,45.90
2023-02-23T00:53:54.832Z,42.55
2023-02-23T00:54:54.825Z,42.84
2023-02-23T00:55:54.818Z,45.77
2023-02-23T00:56:54.812Z,53.66
2023-02-23T00:57:54.805Z,46.82
2023-02-23T00:58:54.826Z,43.27
2023-02-23T00:59:54.785Z,46.82
2023-02-23T01:00:54.941Z,45.36
2023-02-23T01:01:54.775Z,56.17
2023-02-23T01:02:54.766Z,47.66
2023-02-23T01:03:54.794Z,43.94
2023-02-23T01:04:54.749Z,45.98
2023-02-23T01:05:54.744Z,56.49
2023-02-23T01:06:54.740Z,47.97
2023-02-23T01:07:54.727Z,52.09
2023-02-23T01:08:54.758Z,49.24
2023-02-23T01:09:54.717Z,44.53
2023-02-23T01:10:54.707Z,54.21
2023-02-23T01:11:54.695Z,47.11
2023-02-23T01:12:54.683Z,46.13
2023-02-23T01:13:54.704Z,42.62
2023-02-23T01:14:54.666Z,43.16
2023-02-23T01:15:54.700Z,45.81
2023-02-23T01:16:54.649Z,44.39
2023-02-23T01:17:54.650Z,45.36
2023-02-23T01:18:54.696Z,49.01
2023-02-23T01:19:54.641Z,50.23
2023-02-23T01:20:54.617Z,45.72
2023-02-23T01:21:54.677Z,42.93
2023-02-23T01:22:54.622Z,52.03
2023-02-23T01:23:54.621Z,48.64
2023-02-23T01:24:54.592Z,43.09
2023-02-23T01:25:54.623Z,44.87
2023-02-23T01:26:54.570Z,44.18
2023-02-23T01:27:54.564Z,54.92
2023-02-23T01:28:54.582Z,45.62
2023-02-23T01:29:54.556Z,58.83
2023-02-23T01:30:54.652Z,61.39
2023-02-23T01:31:54.622Z,60.65
2023-02-23T01:32:54.533Z,63.24
2023-02-23T01:33:54.563Z,60.61
2023-02-23T01:34:54.512Z,61.34
2023-02-23T01:35:54.502Z,63.86
2023-02-23T01:36:54.502Z,60.40
2023-02-23T01:37:54.495Z,62.24
2023-02-23T01:38:54.504Z,60.12
2023-02-23T01:39:54.480Z,60.40
2023-02-23T01:40:54.466Z,60.63
2023-02-23T01:41:54.469Z,62.40
2023-02-23T01:42:54.456Z,61.49
2023-02-23T01:43:54.461Z,60.79
2023-02-23T01:44:55.441Z,61.31
2023-02-23T01:45:54.444Z,59.85
2023-02-23T01:46:54.431Z,60.32
2023-02-23T01:47:54.416Z,60.56
2023-02-23T01:48:54.437Z,61.13
2023-02-23T01:49:54.404Z,61.14
2023-02-23T01:50:54.400Z,60.22
2023-02-23T01:51:54.391Z,63.56
2023-02-23T01:52:54.375Z,64.09
2023-02-23T01:53:54.398Z,60.12
2023-02-23T01:54:54.363Z,60.06
2023-02-23T01:55:54.354Z,60.62
2023-02-23T01:56:54.347Z,63.84
2023-02-23T01:57:54.343Z,60.46
2023-02-23T01:58:54.362Z,60.33
2023-02-23T01:59:54.327Z,59.97
2023-02-23T02:00:54.325Z,60.24
2023-02-23T02:01:54.349Z,59.88
2023-02-23T02:02:54.296Z,60.03
2023-02-23T02:03:54.318Z,60.12
2023-02-23T02:04:54.292Z,59.83
2023-02-23T02:05:54.275Z,59.78
2023-02-23T02:06:54.263Z,60.14
2023-02-23T02:07:54.264Z,60.23
2023-02-23T02:08:54.286Z,62.50
2023-02-23T02:09:54.244Z,59.92
2023-02-23T02:10:54.255Z,61.11
2023-02-23T02:11:54.310Z,61.60
2023-02-23T02:12:54.222Z,60.08
2023-02-23T02:13:54.251Z,59.87
2023-02-23T02:14:54.212Z,59.78
2023-02-23T02:15:54.237Z,61.91
2023-02-23T02:16:55.196Z,59.80
2023-02-23T02:17:54.189Z,63.52
2023-02-23T02:18:54.203Z,60.03
2023-02-23T02:19:54.176Z,60.02
2023-02-23T02:20:54.170Z,59.60
2023-02-23T02:21:54.159Z,59.96
2023-02-23T02:22:54.154Z,59.88
2023-02-23T02:23:54.165Z,59.94
2023-02-23T02:24:54.198Z,60.30
2023-02-23T02:25:54.129Z,60.51
2023-02-23T02:26:54.133Z,62.07
2023-02-23T02:27:54.107Z,60.99
2023-02-23T02:28:54.125Z,59.93
2023-02-23T02:29:54.089Z,49.04
2023-02-23T02:30:55.122Z,46.08
2023-02-23T02:31:54.146Z,46.56
2023-02-23T02:32:54.075Z,41.83
2023-02-23T02:33:54.092Z,46.59
2023-02-23T02:34:54.060Z,44.93
2023-02-23T02:35:54.046Z,42.48
2023-02-23T02:36:54.033Z,48.40
2023-02-23T02:37:54.028Z,44.50
2023-02-23T02:38:54.075Z,56.33
2023-02-23T02:39:54.004Z,48.69
2023-02-23T02:40:55.004Z,44.96
2023-02-23T02:41:53.999Z,47.38
2023-02-23T02:42:54.010Z,46.24
2023-02-23T02:43:54.007Z,49.69
2023-02-23T02:44:53.969Z,61.09
2023-02-23T02:45:53.995Z,48.70
2023-02-23T02:46:53.964Z,45.79
2023-02-23T02:47:53.951Z,42.89
2023-02-23T02:48:53.943Z,51.97
2023-02-23T02:49:53.959Z,44.24
2023-02-23T02:50:53.927Z,45.13
2023-02-23T02:51:53.923Z,56.72
2023-02-23T02:52:53.912Z,46.39
2023-02-23T02:53:53.912Z,45.46
2023-02-23T02:54:53.924Z,49.23
2023-02-23T02:55:53.892Z,56.95
2023-02-23T02:56:53.883Z,47.63
2023-02-23T02:57:53.876Z,45.88
2023-02-23T02:58:53.877Z,45.48
2023-02-23T02:59:53.881Z,58.16
2023-02-23T03:00:53.848Z,43.95
2023-02-23T03:01:53.877Z,55.68
2023-02-23T03:02:53.883Z,50.36
2023-02-23T03:03:53.826Z,45.48
2023-02-23T03:04:53.869Z,45.79
2023-02-23T03:05:53.808Z,49.14
2023-02-23T03:06:53.812Z,56.44
2023-02-23T03:07:53.793Z,46.72
2023-02-23T03:08:53.783Z,49.42
2023-02-23T03:09:53.809Z,53.95
2023-02-23T03:10:53.768Z,55.66
2023-02-23T03:11:54.158Z,51.86
2023-02-23T03:12:54.759Z,55.23
2023-02-23T03:13:53.749Z,48.32
2023-02-23T03:14:53.768Z,46.59
2023-02-23T03:15:53.762Z,44.09
2023-02-23T03:16:53.726Z,44.25
2023-02-23T03:17:53.722Z,58.57
2023-02-23T03:18:53.712Z,46.74
2023-02-23T03:19:53.730Z,42.60
2023-02-23T03:20:53.699Z,47.37
2023-02-23T03:21:53.693Z,51.49
2023-02-23T03:22:53.704Z,44.59
2023-02-23T03:23:53.751Z,50.47
2023-02-23T03:24:53.682Z,57.09
2023-02-23T03:25:53.656Z,47.45
2023-02-23T03:26:53.644Z,48.71
2023-02-23T03:27:53.639Z,47.35
2023-02-23T03:28:53.631Z,49.32
2023-02-23T03:29:53.680Z,56.92
2023-02-23T03:30:53.639Z,50.53
2023-02-23T03:31:53.719Z,52.39
2023-02-23T03:32:53.597Z,51.48
2023-02-23T03:33:53.599Z,57.53
2023-02-23T03:34:53.617Z,54.70
2023-02-23T03:35:53.581Z,48.66
2023-02-23T03:36:53.577Z,48.42
2023-02-23T03:37:53.570Z,47.40
2023-02-23T03:38:53.562Z,47.07
2023-02-23T03:39:53.673Z,56.07
2023-02-23T03:40:53.545Z,46.53
2023-02-23T03:41:53.533Z,49.77
2023-02-23T03:42:53.535Z,49.47
2023-02-23T03:43:53.518Z,50.64
2023-02-23T03:44:53.517Z,55.27
2023-02-23T03:45:53.574Z,50.72
2023-02-23T03:46:53.500Z,51.53
2023-02-23T03:47:53.500Z,47.37
2023-02-23T03:48:53.486Z,48.40
2023-02-23T03:49:53.477Z,48.19
2023-02-23T03:50:53.504Z,54.96
2023-02-23T03:51:53.476Z,49.25
2023-02-23T03:52:53.465Z,51.44
2023-02-23T03:53:53.445Z,51.96
2023-02-23T03:54:53.439Z,56.82
2023-02-23T03:55:53.454Z,54.88
2023-02-23T03:56:53.417Z,50.42
2023-02-23T03:57:53.416Z,45.68
2023-02-23T03:58:53.411Z,48.50
2023-02-23T03:59:53.424Z,45.98
2023-02-23T04:00:53.425Z,47.34
2023-02-23T04:01:53.441Z,52.65
2023-02-23T04:02:53.381Z,49.37
2023-02-23T04:03:53.424Z,52.10
2023-02-23T04:04:53.357Z,49.61
2023-02-23T04:05:53.380Z,49.99
2023-02-23T04:06:53.356Z,48.56
2023-02-23T04:07:53.336Z,49.59
2023-02-23T04:08:53.330Z,59.83
2023-02-23T04:09:53.321Z,51.00
2023-02-23T04:10:53.343Z,46.32
2023-02-23T04:11:53.312Z,52.48
2023-02-23T04:12:53.298Z,49.51
2023-02-23T04:13:53.288Z,59.05
2023-02-23T04:14:53.282Z,48.89
2023-02-23T04:15:53.486Z,51.71
2023-02-23T04:16:53.275Z,47.68
2023-02-23T04:17:53.261Z,46.84
2023-02-23T04:18:53.262Z,48.17
2023-02-23T04:19:53.248Z,58.24
2023-02-23T04:20:53.359Z,55.63
2023-02-23T04:21:53.235Z,54.09
2023-02-23T04:22:53.233Z,50.16
2023-02-23T04:23:53.213Z,51.97
2023-02-23T04:24:53.202Z,55.21
2023-02-23T04:25:53.228Z,50.01
2023-02-23T04:26:53.195Z,52.77
2023-02-23T04:27:53.178Z,53.83
2023-02-23T04:28:53.177Z,54.69
2023-02-23T04:29:53.170Z,56.30
2023-02-23T04:30:53.243Z,57.43
2023-02-23T04:31:53.284Z,51.27
2023-02-23T04:32:53.176Z,51.31
2023-02-23T04:33:53.151Z,60.72
2023-02-23T04:34:53.141Z,52.44
2023-02-23T04:35:53.154Z,59.58
2023-02-23T04:36:53.133Z,53.23
2023-02-23T04:37:53.108Z,56.24
2023-02-23T04:38:53.100Z,50.58
2023-02-23T04:39:53.096Z,56.10
2023-02-23T04:40:53.122Z,56.93
2023-02-23T04:41:53.091Z,53.54
2023-02-23T04:42:53.080Z,54.38
2023-02-23T04:43:53.173Z,51.06
2023-02-23T04:44:53.051Z,55.08
2023-02-23T04:45:53.100Z,54.33
2023-02-23T04:46:53.068Z,51.28
2023-02-23T04:47:53.052Z,51.11
2023-02-23T04:48:53.032Z,57.09
2023-02-23T04:49:53.031Z,57.14
2023-02-23T04:50:53.025Z,51.53
2023-02-23T04:51:53.038Z,55.26
2023-02-23T04:52:53.024Z,58.83
2023-02-23T04:53:52.997Z,58.30
2023-02-23T04:54:52.995Z,55.70
2023-02-23T04:55:52.989Z,53.61
2023-02-23T04:56:52.994Z,53.45
2023-02-23T04:57:52.955Z,61.45
2023-02-23T04:58:53.949Z,60.43
2023-02-23T04:59:53.010Z,60.42
2023-02-23T05:00:52.945Z,64.71
2023-02-23T05:01:52.963Z,60.22
2023-02-23T05:02:52.936Z,60.58
2023-02-23T05:03:52.917Z,60.41
2023-02-23T05:04:52.992Z,60.28
2023-02-23T05:05:52.911Z,60.46
2023-02-23T05:06:52.922Z,60.19
2023-02-23T05:07:52.883Z,60.50
2023-02-23T05:08:52.872Z,60.73
2023-02-23T05:09:52.905Z,61.17
2023-02-23T05:10:52.870Z,60.90
2023-02-23T05:11:52.884Z,60.66
2023-02-23T05:12:52.848Z,61.20
2023-02-23T05:13:52.835Z,61.18
2023-02-23T05:14:52.835Z,61.29
2023-02-23T05:15:52.934Z,60.54
2023-02-23T05:16:52.840Z,61.07
2023-02-23T05:17:52.808Z,63.43
2023-02-23T05:18:52.816Z,61.06
2023-02-23T05:19:52.796Z,60.72
2023-02-23T05:20:52.799Z,60.78
2023-02-23T05:21:52.802Z,60.77
2023-02-23T05:22:52.768Z,63.08
2023-02-23T05:23:52.769Z,60.27
2023-02-23T05:24:52.755Z,61.20
2023-02-23T05:25:52.754Z,61.02
2023-02-23T05:26:52.840Z,60.28
2023-02-23T05:27:52.733Z,60.69
2023-02-23T05:28:52.730Z,60.89
2023-02-23T05:29:52.719Z,62.76
2023-02-23T05:30:52.787Z,60.91
2023-02-23T05:31:52.873Z,60.51
2023-02-23T05:32:52.699Z,63.29
2023-02-23T05:33:52.685Z,59.11
2023-02-23T05:34:52.675Z,58.46
2023-02-23T05:35:52.665Z,51.31
2023-02-23T05:36:52.690Z,58.46
2023-02-23T05:37:52.657Z,55.03
2023-02-23T05:38:52.646Z,57.56
2023-02-23T05:39:52.638Z,56.44
2023-02-23T05:40:52.630Z,60.61
2023-02-23T05:41:52.648Z,55.40
2023-02-23T05:42:52.611Z,55.89
2023-02-23T05:43:52.627Z,57.59
2023-02-23T05:44:52.618Z,53.13
2023-02-23T05:45:52.647Z,56.96
2023-02-23T05:46:52.610Z,55.98
2023-02-23T05:47:52.575Z,57.13
2023-02-23T05:48:52.566Z,58.22
2023-02-23T05:49:52.559Z,58.37
2023-02-23T05:50:52.546Z,56.83
2023-02-23T05:51:52.545Z,62.54
2023-02-23T05:52:52.563Z,56.51
2023-02-23T05:53:52.523Z,53.12
2023-02-23T05:54:52.527Z,55.15
2023-02-23T05:55:52.509Z,56.98
2023-02-23T05:56:52.509Z,59.44
2023-02-23T05:57:52.527Z,57.01
2023-02-23T05:58:53.493Z,55.78
2023-02-23T05:59:52.487Z,59.89
2023-02-23T06:00:52.485Z,53.77
2023-02-23T06:01:52.477Z,54.53
2023-02-23T06:02:52.522Z,57.66
2023-02-23T06:03:52.488Z,58.46
2023-02-23T06:04:52.465Z,55.29
2023-02-23T06:05:52.443Z,55.56
2023-02-23T06:06:52.436Z,58.19
2023-02-23T06:07:52.456Z,59.59
2023-02-23T06:08:52.405Z,54.11
2023-02-23T06:09:52.404Z,57.17
2023-02-23T06:10:52.410Z,56.50
2023-02-23T06:11:52.394Z,56.36
2023-02-23T06:12:52.401Z,60.35
2023-02-23T06:13:52.375Z,57.45
2023-02-23T06:14:52.377Z,56.54
2023-02-23T06:15:52.437Z,55.87
2023-02-23T06:16:52.410Z,56.70
2023-02-23T06:17:52.371Z,55.17
2023-02-23T06:18:52.340Z,56.92
2023-02-23T06:19:52.332Z,54.30
2023-02-23T06:20:52.317Z,51.46
2023-02-23T06:21:52.310Z,55.17
2023-02-23T06:22:52.325Z,54.49
2023-02-23T06:23:52.305Z,52.98
2023-02-23T06:24:52.291Z,54.96
2023-02-23T06:25:52.291Z,55.09
2023-02-23T06:26:52.271Z,54.76
2023-02-23T06:27:52.445Z,54.87
2023-02-23T06:28:52.260Z,53.86
2023-02-23T06:29:52.252Z,54.08
2023-02-23T06:30:52.299Z,60.07
2023-02-23T06:31:52.288Z,55.35
2023-02-23T06:32:53.273Z,51.67
2023-02-23T06:33:52.247Z,54.27
2023-02-23T06:34:52.216Z,55.93
2023-02-23T06:35:52.272Z,55.98
2023-02-23T06:36:52.227Z,54.74
2023-02-23T06:37:52.218Z,54.06
2023-02-23T06:38:52.256Z,54.80
2023-02-23T06:39:52.188Z,57.13
2023-02-23T06:40:52.194Z,54.66
2023-02-23T06:41:52.171Z,56.60
2023-02-23T06:42:52.178Z,53.42
2023-02-23T06:43:52.142Z,56.35
2023-02-23T06:44:52.134Z,61.49
2023-02-23T06:45:52.159Z,57.89
2023-02-23T06:46:52.153Z,54.41
2023-02-23T06:47:52.146Z,60.65
2023-02-23T06:48:52.112Z,56.49
2023-02-23T06:49:52.994Z,54.88
2023-02-23T06:50:52.124Z,52.70
2023-02-23T06:51:52.174Z,51.71
2023-02-23T06:52:52.122Z,55.25
2023-02-23T06:53:52.073Z,53.43
2023-02-23T06:54:52.056Z,56.59
2023-02-23T06:55:52.063Z,58.48
2023-02-23T06:56:52.046Z,59.97
2023-02-23T06:57:52.059Z,54.49
2023-02-23T06:58:52.032Z,55.88
2023-02-23T06:59:52.020Z,53.44
2023-02-23T07:00:52.003Z,53.40
2023-02-23T07:01:53.071Z,55.47
2023-02-23T07:02:52.021Z,59.12
2023-02-23T07:03:53.035Z,60.15
2023-02-23T07:04:51.984Z,55.48
2023-02-23T07:05:51.977Z,58.59
2023-02-23T07:06:51.971Z,53.25
2023-02-23T07:07:52.032Z,58.08
2023-02-23T07:08:51.961Z,62.38
2023-02-23T07:09:51.966Z,57.60
2023-02-23T07:10:51.952Z,53.81
2023-02-23T07:11:51.934Z,57.26
2023-02-23T07:12:51.955Z,56.67
2023-02-23T07:13:51.912Z,56.65
2023-02-23T07:14:51.902Z,63.77
2023-02-23T07:15:51.909Z,56.14
2023-02-23T07:16:51.893Z,55.52
2023-02-23T07:17:51.913Z,56.23
2023-02-23T07:18:51.882Z,56.18
2023-02-23T07:19:51.872Z,59.10
2023-02-23T07:20:51.863Z,58.48
2023-02-23T07:21:51.906Z,55.46
2023-02-23T07:22:51.877Z,58.04
2023-02-23T07:23:51.894Z,55.33
2023-02-23T07:24:51.827Z,57.21
2023-02-23T07:25:51.820Z,59.48
2023-02-23T07:26:51.820Z,53.59
2023-02-23T07:27:51.833Z,57.96
2023-02-23T07:28:54.082Z,56.26
2023-02-23T07:29:51.914Z,55.57
2023-02-23T07:30:51.827Z,63.62
2023-02-23T07:31:51.850Z,54.75
2023-02-23T07:32:51.826Z,55.65
2023-02-23T07:33:51.761Z,62.73
2023-02-23T07:34:53.752Z,55.71
2023-02-23T07:35:52.747Z,54.65
2023-02-23T07:36:51.752Z,57.16
2023-02-23T07:37:51.769Z,55.48
2023-02-23T07:38:51.727Z,57.02
2023-02-23T07:39:51.715Z,53.45
2023-02-23T07:40:51.713Z,56.90
2023-02-23T07:41:51.705Z,55.54
2023-02-23T07:42:51.747Z,54.65
2023-02-23T07:43:51.690Z,56.03
2023-02-23T07:44:51.682Z,60.07
2023-02-23T07:45:51.737Z,56.39
2023-02-23T07:46:51.667Z,55.48
2023-02-23T07:47:51.694Z,56.89
2023-02-23T07:48:51.653Z,58.25
2023-02-23T07:49:51.646Z,62.35
2023-02-23T07:50:51.642Z,55.46
2023-02-23T07:51:51.648Z,54.16
2023-02-23T07:52:51.652Z,56.16
2023-02-23T07:53:51.615Z,53.00
2023-02-23T07:54:51.607Z,57.52
2023-02-23T07:55:51.603Z,62.54
2023-02-23T07:56:51.593Z,55.85
2023-02-23T07:57:51.622Z,53.36
2023-02-23T07:58:51.582Z,59.05
2023-02-23T07:59:51.579Z,55.54
2023-02-23T08:00:51.590Z,58.53
2023-02-23T08:01:51.550Z,58.80
2023-02-23T08:02:51.572Z,54.75
2023-02-23T08:03:51.546Z,54.44
2023-02-23T08:04:51.532Z,58.80
2023-02-23T08:05:51.526Z,57.10
2023-02-23T08:06:51.521Z,55.09
2023-02-23T08:07:51.514Z,55.93
2023-02-23T08:08:51.530Z,56.48
2023-02-23T08:09:51.503Z,59.96
2023-02-23T08:10:51.486Z,57.75
2023-02-23T08:11:51.523Z,57.17
2023-02-23T08:12:51.531Z,57.35
2023-02-23T08:13:51.494Z,61.98
2023-02-23T08:14:51.486Z,53.24
2023-02-23T08:15:51.447Z,53.14
2023-02-23T08:16:51.805Z,58.91
2023-02-23T08:17:52.437Z,62.15
2023-02-23T08:18:51.547Z,55.72
2023-02-23T08:19:51.428Z,52.80
2023-02-23T08:20:51.428Z,59.08
2023-02-23T08:21:51.414Z,60.61
2023-02-23T08:22:52.415Z,52.18
2023-02-23T08:23:51.415Z,57.98
2023-02-23T08:24:51.380Z,52.52
2023-02-23T08:25:51.375Z,57.13
2023-02-23T08:26:51.364Z,52.80
2023-02-23T08:27:51.357Z,56.20
2023-02-23T08:28:51.379Z,55.75
2023-02-23T08:29:51.344Z,56.61
2023-02-23T08:30:51.425Z,56.92
2023-02-23T08:31:51.525Z,61.39
2023-02-23T08:32:51.328Z,54.44
2023-02-23T08:33:51.361Z,56.39
2023-02-23T08:34:51.313Z,61.27
2023-02-23T08:35:51.291Z,56.49
2023-02-23T08:36:51.302Z,55.89
2023-02-23T08:37:51.301Z,55.49
2023-02-23T08:38:51.299Z,56.90
2023-02-23T08:39:51.274Z,56.21
2023-02-23T08:40:51.274Z,56.79
2023-02-23T08:41:51.253Z,57.57
2023-02-23T08:42:51.247Z,59.18
2023-02-23T08:43:51.304Z,63.41
2023-02-23T08:44:51.226Z,55.33
2023-02-23T08:45:51.234Z,56.97
2023-02-23T08:46:51.216Z,55.60
2023-02-23T08:47:51.212Z,54.75
2023-02-23T08:48:51.226Z,59.69
2023-02-23T08:49:51.190Z,54.38
2023-02-23T08:50:51.181Z,54.36
2023-02-23T08:51:51.182Z,57.85
2023-02-23T08:52:51.180Z,58.67
2023-02-23T08:53:51.185Z,54.52
2023-02-23T08:54:51.151Z,56.66
2023-02-23T08:55:51.149Z,57.66
2023-02-23T08:56:51.143Z,55.64
2023-02-23T08:57:51.139Z,54.79
2023-02-23T08:58:51.160Z,55.88
2023-02-23T08:59:51.117Z,61.00
2023-02-23T09:00:51.107Z,55.18
2023-02-23T09:01:51.122Z,55.21
2023-02-23T09:02:51.080Z,56.97
2023-02-23T09:03:51.102Z,57.16
2023-02-23T09:04:51.072Z,55.32
2023-02-23T09:05:51.064Z,53.70
2023-02-23T09:06:51.066Z,58.21
2023-02-23T09:07:51.050Z,51.89
2023-02-23T09:08:51.092Z,56.66
2023-02-23T09:09:52.036Z,55.74
2023-02-23T09:10:51.025Z,59.51
2023-02-23T09:11:51.035Z,58.51
2023-02-23T09:12:51.012Z,54.25
2023-02-23T09:13:51.074Z,49.83
2023-02-23T09:14:51.013Z,54.34
2023-02-23T09:15:51.095Z,55.74
2023-02-23T09:16:51.049Z,55.44
2023-02-23T09:17:51.031Z,60.70
2023-02-23T09:18:51.001Z,53.67
2023-02-23T09:19:50.969Z,57.55
2023-02-23T09:20:50.958Z,56.43
2023-02-23T09:21:50.944Z,58.16
2023-02-23T09:22:50.944Z,57.83
2023-02-23T09:23:51.056Z,55.05
2023-02-23T09:24:50.920Z,54.96
2023-02-23T09:25:50.914Z,54.93
2023-02-23T09:26:50.912Z,55.08
2023-02-23T09:27:50.900Z,55.85
2023-02-23T09:28:50.918Z,53.24
2023-02-23T09:29:50.887Z,57.54
2023-02-23T09:30:50.919Z,57.50
2023-02-23T09:31:50.981Z,56.13
2023-02-23T09:32:50.870Z,53.16
2023-02-23T09:33:50.881Z,56.51
2023-02-23T09:34:50.851Z,52.22
2023-02-23T09:35:50.845Z,56.02
2023-02-23T09:36:50.836Z,52.84
2023-02-23T09:37:50.829Z,54.51
2023-02-23T09:38:50.838Z,55.98
2023-02-23T09:39:50.835Z,53.73
2023-02-23T09:40:50.794Z,62.76
2023-02-23T09:41:50.794Z,54.41
2023-02-23T09:42:50.787Z,55.78
2023-02-23T09:43:50.797Z,53.42
2023-02-23T09:44:50.765Z,58.04
2023-02-23T09:45:50.784Z,56.31
2023-02-23T09:46:50.757Z,53.96
2023-02-23T09:47:50.749Z,59.88
2023-02-23T09:48:50.771Z,56.12
2023-02-23T09:49:50.744Z,55.83
2023-02-23T09:50:50.753Z,57.93
2023-02-23T09:51:50.732Z,58.85
2023-02-23T09:52:50.703Z,51.16
2023-02-23T09:53:51.102Z,57.17
2023-02-23T09:54:50.694Z,57.99
2023-02-23T09:55:50.680Z,55.53
2023-02-23T09:56:50.672Z,56.93
2023-02-23T09:57:50.688Z,55.99
2023-02-23T09:58:50.686Z,55.26
2023-02-23T09:59:50.674Z,57.67
2023-02-23T10:00:50.645Z,61.45
2023-02-23T10:01:50.657Z,56.19
2023-02-23T10:02:50.630Z,52.86
2023-02-23T10:03:50.654Z,56.83
2023-02-23T10:04:50.652Z,54.91
2023-02-23T10:05:50.612Z,54.18
2023-02-23T10:06:50.606Z,51.63
2023-02-23T10:07:50.610Z,54.42
2023-02-23T10:08:50.622Z,55.07
2023-02-23T10:09:50.576Z,56.13
2023-02-23T10:10:50.572Z,55.11
2023-02-23T10:11:50.570Z,54.52
2023-02-23T10:12:50.555Z,55.11
2023-02-23T10:13:50.579Z,52.85
2023-02-23T10:14:50.569Z,53.45
2023-02-23T10:15:50.563Z,60.38
2023-02-23T10:16:50.529Z,54.68
2023-02-23T10:17:50.521Z,55.94
2023-02-23T10:18:51.532Z,56.85
2023-02-23T10:19:50.569Z,57.92
2023-02-23T10:20:50.495Z,53.74
2023-02-23T10:21:50.499Z,55.94
2023-02-23T10:22:50.478Z,57.85
2023-02-23T10:23:50.473Z,57.53
2023-02-23T10:24:50.502Z,56.12
2023-02-23T10:25:50.470Z,57.14
2023-02-23T10:26:50.454Z,55.66
2023-02-23T10:27:50.458Z,57.21
2023-02-23T10:28:50.436Z,60.22
2023-02-23T10:29:50.460Z,55.20
2023-02-23T10:30:50.583Z,54.96
2023-02-23T10:31:50.514Z,54.41
2023-02-23T10:32:50.405Z,58.08
2023-02-23T10:33:51.410Z,55.37
2023-02-23T10:34:50.421Z,55.50
2023-02-23T10:35:51.238Z,51.02
2023-02-23T10:36:50.393Z,60.20
2023-02-23T10:37:50.394Z,54.41
2023-02-23T10:38:50.380Z,56.59
2023-02-23T10:39:50.388Z,55.20
2023-02-23T10:40:50.347Z,51.89
2023-02-23T10:41:50.357Z,56.91
2023-02-23T10:42:50.341Z,54.50
2023-02-23T10:43:50.344Z,56.90
2023-02-23T10:44:50.359Z,54.04
2023-02-23T10:45:50.316Z,59.73
2023-02-23T10:46:50.365Z,56.54
2023-02-23T10:47:50.313Z,58.12
2023-02-23T10:48:50.346Z,58.95
2023-02-23T10:49:50.647Z,56.05
2023-02-23T10:50:50.304Z,52.98
2023-02-23T10:51:50.262Z,60.05
2023-02-23T10:52:50.258Z,56.23
2023-02-23T10:53:50.251Z,54.39
2023-02-23T10:54:50.267Z,53.38
2023-02-23T10:55:50.229Z,56.06
2023-02-23T10:56:50.221Z,54.87
2023-02-23T10:57:50.205Z,51.81
2023-02-23T10:58:50.241Z,56.60
2023-02-23T10:59:50.219Z,55.46
2023-02-23T11:00:50.191Z,55.03
2023-02-23T11:02:01.549Z,54.36
2023-02-23T11:02:52.170Z,51.66
2023-02-23T11:03:54.937Z,50.95
2023-02-23T11:04:52.268Z,56.89
2023-02-23T11:05:50.143Z,57.88
2023-02-23T11:06:50.138Z,54.59
2023-02-23T11:07:50.132Z,59.25
2023-02-23T11:08:50.122Z,53.83
2023-02-23T11:09:50.145Z,51.71
2023-02-23T11:10:50.113Z,56.11
2023-02-23T11:11:50.173Z,54.96
2023-02-23T11:12:50.093Z,55.65
2023-02-23T11:13:50.102Z,61.65
2023-02-23T11:14:50.109Z,52.93
2023-02-23T11:15:51.133Z,55.32
2023-02-23T11:16:52.048Z,58.10
2023-02-23T11:17:50.055Z,56.54
2023-02-23T11:18:50.047Z,54.65
2023-02-23T11:19:50.064Z,57.65
2023-02-23T11:20:50.046Z,57.92
2023-02-23T11:21:50.032Z,55.22
2023-02-23T11:22:50.017Z,56.41
2023-02-23T11:23:50.006Z,60.61
2023-02-23T11:24:50.030Z,57.74
2023-02-23T11:25:50.004Z,59.69
2023-02-23T11:26:50.029Z,59.26
2023-02-23T11:27:49.977Z,59.69
2023-02-23T11:28:49.968Z,58.44
2023-02-23T11:29:50.000Z,59.62
2023-02-23T11:30:49.980Z,59.65
2023-02-23T11:31:50.061Z,59.24
2023-02-23T11:32:50.041Z,59.93
2023-02-23T11:33:49.943Z,59.68
2023-02-23T11:34:49.955Z,59.51
2023-02-23T11:35:49.921Z,59.99
2023-02-23T11:36:49.912Z,59.69
2023-02-23T11:37:49.921Z,59.80
2023-02-23T11:38:49.896Z,54.51
2023-02-23T11:39:49.913Z,52.54
2023-02-23T11:40:49.879Z,57.45
2023-02-23T11:41:49.882Z,53.23
2023-02-23T11:42:49.881Z,57.72
2023-02-23T11:43:49.891Z,55.92
2023-02-23T11:44:49.849Z,55.13
2023-02-23T11:45:49.899Z,56.34
2023-02-23T11:46:49.839Z,57.92
2023-02-23T11:47:49.974Z,56.24
2023-02-23T11:48:49.818Z,55.48
2023-02-23T11:49:49.819Z,53.04
2023-02-23T11:50:49.843Z,55.94
2023-02-23T11:51:49.810Z,53.81
2023-02-23T11:52:49.826Z,57.48
2023-02-23T11:53:49.782Z,53.46
2023-02-23T11:54:49.782Z,58.19
2023-02-23T11:55:49.801Z,57.66
2023-02-23T11:56:49.762Z,54.40
2023-02-23T11:57:49.753Z,56.74
2023-02-23T11:58:49.778Z,56.00
2023-02-23T11:59:49.734Z,56.83
2023-02-23T12:00:49.763Z,54.92
2023-02-23T12:01:49.727Z,61.30
2023-02-23T12:02:49.752Z,56.81
2023-02-23T12:03:49.705Z,58.55
2023-02-23T12:04:49.794Z,56.26
2023-02-23T12:05:49.729Z,58.90
2023-02-23T12:06:49.687Z,53.98
2023-02-23T12:07:49.670Z,55.71
2023-02-23T12:08:49.686Z,58.39
2023-02-23T12:09:49.659Z,55.69
2023-02-23T12:10:49.754Z,56.84
2023-02-23T12:11:49.646Z,57.73
2023-02-23T12:12:49.662Z,59.48
2023-02-23T12:13:49.629Z,55.22
2023-02-23T12:14:49.635Z,56.91
2023-02-23T12:15:49.692Z,56.11
2023-02-23T12:16:49.671Z,57.68
2023-02-23T12:17:49.607Z,57.45
2023-02-23T12:18:49.606Z,56.22
2023-02-23T12:19:49.580Z,56.04
2023-02-23T12:20:50.606Z,57.15
2023-02-23T12:21:49.570Z,55.16
2023-02-23T12:22:49.569Z,57.04
2023-02-23T12:23:51.979Z,59.78
2023-02-23T12:24:49.546Z,57.88
2023-02-23T12:25:49.564Z,55.30
2023-02-23T12:26:49.538Z,56.83
2023-02-23T12:27:49.520Z,55.54
2023-02-23T12:28:49.512Z,57.75
2023-02-23T12:29:49.500Z,55.36
2023-02-23T12:30:49.572Z,55.05
2023-02-23T12:31:49.627Z,54.17
2023-02-23T12:32:49.489Z,56.03
2023-02-23T12:33:49.489Z,56.62
2023-02-23T12:34:49.467Z,57.47
2023-02-23T12:35:49.492Z,57.12
2023-02-23T12:36:49.450Z,56.69
2023-02-23T12:37:49.436Z,56.95
2023-02-23T12:38:49.448Z,58.07
2023-02-23T12:39:49.428Z,56.56
2023-02-23T12:40:51.065Z,56.29
2023-02-23T12:41:49.421Z,55.78
2023-02-23T12:42:49.411Z,54.92
2023-02-23T12:43:49.549Z,57.17
2023-02-23T12:44:49.401Z,58.43
2023-02-23T12:45:49.521Z,57.53
2023-02-23T12:46:49.364Z,57.88
2023-02-23T12:47:49.363Z,57.87
2023-02-23T12:48:49.360Z,60.86
2023-02-23T12:49:49.343Z,56.49
2023-02-23T12:50:49.374Z,60.82
2023-02-23T12:51:49.337Z,56.08
2023-02-23T12:52:49.325Z,55.25